sensor_id;sensor_type;location;lat;lon;timestamp;P1;durP1;ratioP1;P2;durP2;ratioP2
24617;SDS011;12762;51.730;5.356;2023-09-07T00:01:37;19.90;;;12.10;;
24617;SDS011;12762;51.730;5.356;2023-09-07T00:04:04;12.23;;;9.30;;
24617;SDS011;12762;51.730;5.356;2023-09-07T00:06:33;19.50;;;11.83;;
24617;SDS011;12762;51.730;5.356;2023-09-07T00:09:01;9.07;;;6.70;;
24617;SDS011;12762;51.730;5.356;2023-09-07T00:11:32;10.73;;;8.27;;
24617;SDS011;12762;51.730;5.356;2023-09-07T00:13:59;17.83;;;10.53;;
24617;SDS011;12762;51.730;5.356;2023-09-07T00:16:32;13.20;;;8.53;;
24617;SDS011;12762;51.730;5.356;2023-09-07T00:19:02;13.70;;;10.37;;
24617;SDS011;12762;51.730;5.356;2023-09-07T00:21:29;12.43;;;9.67;;
24617;SDS011;12762;51.730;5.356;2023-09-07T00:23:56;11.70;;;7.70;;
24617;SDS011;12762;51.730;5.356;2023-09-07T00:26:30;13.10;;;10.40;;
24617;SDS011;12762;51.730;5.356;2023-09-07T00:28:58;11.43;;;9.17;;
24617;SDS011;12762;51.730;5.356;2023-09-07T00:31:25;10.20;;;8.03;;
24617;SDS011;12762;51.730;5.356;2023-09-07T00:33:52;15.73;;;11.53;;
24617;SDS011;12762;51.730;5.356;2023-09-07T00:36:19;13.53;;;10.17;;
24617;SDS011;12762;51.730;5.356;2023-09-07T00:38:46;13.97;;;11.33;;
24617;SDS011;12762;51.730;5.356;2023-09-07T00:41:12;16.70;;;9.47;;
24617;SDS011;12762;51.730;5.356;2023-09-07T00:43:42;12.37;;;10.10;;
24617;SDS011;12762;51.730;5.356;2023-09-07T00:46:08;14.00;;;10.83;;
24617;SDS011;12762;51.730;5.356;2023-09-07T00:48:36;11.93;;;9.60;;
24617;SDS011;12762;51.730;5.356;2023-09-07T00:51:03;14.73;;;10.77;;
24617;SDS011;12762;51.730;5.356;2023-09-07T00:53:30;13.97;;;10.57;;
24617;SDS011;12762;51.730;5.356;2023-09-07T00:55:58;14.10;;;11.00;;
24617;SDS011;12762;51.730;5.356;2023-09-07T00:58:27;14.97;;;11.63;;
24617;SDS011;12762;51.730;5.356;2023-09-07T01:00:55;9.00;;;7.00;;
24617;SDS011;12762;51.730;5.356;2023-09-07T01:03:22;13.87;;;10.33;;
24617;SDS011;12762;51.730;5.356;2023-09-07T01:05:52;16.83;;;10.70;;
24617;SDS011;12762;51.730;5.356;2023-09-07T01:08:23;12.03;;;10.27;;
24617;SDS011;12762;51.730;5.356;2023-09-07T01:10:55;16.63;;;11.30;;
24617;SDS011;12762;51.730;5.356;2023-09-07T01:13:22;9.47;;;6.90;;
24617;SDS011;12762;51.730;5.356;2023-09-07T01:15:51;13.40;;;9.90;;
24617;SDS011;12762;51.730;5.356;2023-09-07T01:18:18;11.10;;;9.00;;
24617;SDS011;12762;51.730;5.356;2023-09-07T01:20:50;12.13;;;9.17;;
24617;SDS011;12762;51.730;5.356;2023-09-07T01:23:18;14.13;;;9.93;;
24617;SDS011;12762;51.730;5.356;2023-09-07T01:25:46;16.40;;;11.03;;
24617;SDS011;12762;51.730;5.356;2023-09-07T01:28:15;10.37;;;7.03;;
24617;SDS011;12762;51.730;5.356;2023-09-07T01:30:41;10.40;;;8.33;;
24617;SDS011;12762;51.730;5.356;2023-09-07T01:33:08;18.03;;;10.33;;
24617;SDS011;12762;51.730;5.356;2023-09-07T01:35:35;12.83;;;10.23;;
24617;SDS011;12762;51.730;5.356;2023-09-07T01:38:04;13.87;;;10.37;;
24617;SDS011;12762;51.730;5.356;2023-09-07T01:40:31;17.13;;;12.40;;
24617;SDS011;12762;51.730;5.356;2023-09-07T01:43:01;9.50;;;6.87;;
24617;SDS011;12762;51.730;5.356;2023-09-07T01:45:28;13.30;;;10.17;;
24617;SDS011;12762;51.730;5.356;2023-09-07T01:47:55;15.17;;;9.70;;
24617;SDS011;12762;51.730;5.356;2023-09-07T01:50:21;13.00;;;10.00;;
24617;SDS011;12762;51.730;5.356;2023-09-07T01:52:48;13.17;;;10.83;;
24617;SDS011;12762;51.730;5.356;2023-09-07T01:55:15;14.87;;;11.10;;
24617;SDS011;12762;51.730;5.356;2023-09-07T01:57:42;13.93;;;10.20;;
24617;SDS011;12762;51.730;5.356;2023-09-07T02:00:10;10.80;;;8.20;;
24617;SDS011;12762;51.730;5.356;2023-09-07T02:02:38;9.43;;;7.20;;
24617;SDS011;12762;51.730;5.356;2023-09-07T02:05:04;11.73;;;8.93;;
24617;SDS011;12762;51.730;5.356;2023-09-07T02:07:35;5.60;;;4.20;;
24617;SDS011;12762;51.730;5.356;2023-09-07T02:10:02;13.63;;;8.23;;
24617;SDS011;12762;51.730;5.356;2023-09-07T02:12:29;13.60;;;9.17;;
24617;SDS011;12762;51.730;5.356;2023-09-07T02:15:01;11.27;;;7.77;;
24617;SDS011;12762;51.730;5.356;2023-09-07T02:17:29;10.43;;;7.53;;
24617;SDS011;12762;51.730;5.356;2023-09-07T02:19:56;11.13;;;8.93;;
24617;SDS011;12762;51.730;5.356;2023-09-07T02:22:23;9.53;;;7.00;;
24617;SDS011;12762;51.730;5.356;2023-09-07T02:24:50;13.10;;;9.47;;
24617;SDS011;12762;51.730;5.356;2023-09-07T02:27:17;11.93;;;7.83;;
24617;SDS011;12762;51.730;5.356;2023-09-07T02:29:44;11.83;;;9.57;;
24617;SDS011;12762;51.730;5.356;2023-09-07T02:32:11;13.60;;;9.30;;
24617;SDS011;12762;51.730;5.356;2023-09-07T02:34:38;15.63;;;10.30;;
24617;SDS011;12762;51.730;5.356;2023-09-07T02:37:05;12.43;;;9.87;;
24617;SDS011;12762;51.730;5.356;2023-09-07T02:39:32;17.27;;;9.10;;
24617;SDS011;12762;51.730;5.356;2023-09-07T02:42:00;12.70;;;7.60;;
24617;SDS011;12762;51.730;5.356;2023-09-07T02:44:26;10.93;;;7.70;;
24617;SDS011;12762;51.730;5.356;2023-09-07T02:46:53;13.67;;;7.67;;
24617;SDS011;12762;51.730;5.356;2023-09-07T02:49:20;11.30;;;7.53;;
24617;SDS011;12762;51.730;5.356;2023-09-07T02:51:46;8.47;;;5.67;;
24617;SDS011;12762;51.730;5.356;2023-09-07T02:54:13;12.23;;;8.47;;
24617;SDS011;12762;51.730;5.356;2023-09-07T02:56:41;12.47;;;9.20;;
24617;SDS011;12762;51.730;5.356;2023-09-07T02:59:08;10.07;;;7.17;;
24617;SDS011;12762;51.730;5.356;2023-09-07T03:01:35;15.60;;;9.00;;
24617;SDS011;12762;51.730;5.356;2023-09-07T03:04:05;14.20;;;10.40;;
24617;SDS011;12762;51.730;5.356;2023-09-07T03:06:32;17.13;;;9.90;;
24617;SDS011;12762;51.730;5.356;2023-09-07T03:09:03;13.57;;;10.60;;
24617;SDS011;12762;51.730;5.356;2023-09-07T03:11:35;15.73;;;10.70;;
24617;SDS011;12762;51.730;5.356;2023-09-07T03:14:02;7.23;;;5.40;;
24617;SDS011;12762;51.730;5.356;2023-09-07T03:16:28;11.60;;;9.07;;
24617;SDS011;12762;51.730;5.356;2023-09-07T03:18:56;12.80;;;8.53;;
24617;SDS011;12762;51.730;5.356;2023-09-07T03:21:23;13.10;;;9.70;;
24617;SDS011;12762;51.730;5.356;2023-09-07T03:23:58;13.83;;;9.37;;
24617;SDS011;12762;51.730;5.356;2023-09-07T03:26:25;12.77;;;9.87;;
24617;SDS011;12762;51.730;5.356;2023-09-07T03:28:52;9.50;;;6.40;;
24617;SDS011;12762;51.730;5.356;2023-09-07T03:31:19;10.07;;;7.43;;
24617;SDS011;12762;51.730;5.356;2023-09-07T03:33:46;13.80;;;10.37;;
24617;SDS011;12762;51.730;5.356;2023-09-07T03:36:15;14.27;;;9.87;;
24617;SDS011;12762;51.730;5.356;2023-09-07T03:38:43;15.40;;;11.00;;
24617;SDS011;12762;51.730;5.356;2023-09-07T03:41:10;18.53;;;12.03;;
24617;SDS011;12762;51.730;5.356;2023-09-07T03:43:37;16.33;;;11.10;;
24617;SDS011;12762;51.730;5.356;2023-09-07T03:46:06;16.77;;;11.17;;
24617;SDS011;12762;51.730;5.356;2023-09-07T03:48:33;13.87;;;9.83;;
24617;SDS011;12762;51.730;5.356;2023-09-07T03:51:05;14.07;;;10.83;;
24617;SDS011;12762;51.730;5.356;2023-09-07T03:53:33;11.03;;;6.90;;
24617;SDS011;12762;51.730;5.356;2023-09-07T03:56:02;16.13;;;10.40;;
24617;SDS011;12762;51.730;5.356;2023-09-07T03:58:32;16.93;;;11.27;;
24617;SDS011;12762;51.730;5.356;2023-09-07T04:01:02;13.57;;;9.63;;
24617;SDS011;12762;51.730;5.356;2023-09-07T04:03:29;15.10;;;10.23;;
24617;SDS011;12762;51.730;5.356;2023-09-07T04:05:56;17.23;;;9.77;;
24617;SDS011;12762;51.730;5.356;2023-09-07T04:08:24;13.40;;;8.90;;
24617;SDS011;12762;51.730;5.356;2023-09-07T04:10:51;16.47;;;10.60;;
24617;SDS011;12762;51.730;5.356;2023-09-07T04:13:18;14.30;;;10.73;;
24617;SDS011;12762;51.730;5.356;2023-09-07T04:15:45;18.53;;;11.63;;
24617;SDS011;12762;51.730;5.356;2023-09-07T04:18:12;17.20;;;11.30;;
24617;SDS011;12762;51.730;5.356;2023-09-07T04:20:41;15.20;;;10.17;;
24617;SDS011;12762;51.730;5.356;2023-09-07T04:23:09;11.77;;;8.67;;
24617;SDS011;12762;51.730;5.356;2023-09-07T04:25:42;15.33;;;8.80;;
24617;SDS011;12762;51.730;5.356;2023-09-07T04:28:08;20.40;;;12.40;;
24617;SDS011;12762;51.730;5.356;2023-09-07T04:30:39;18.90;;;11.83;;
24617;SDS011;12762;51.730;5.356;2023-09-07T04:33:06;15.63;;;11.30;;
24617;SDS011;12762;51.730;5.356;2023-09-07T04:35:33;22.20;;;11.57;;
24617;SDS011;12762;51.730;5.356;2023-09-07T04:38:00;20.93;;;13.40;;
24617;SDS011;12762;51.730;5.356;2023-09-07T04:40:27;15.43;;;10.77;;
24617;SDS011;12762;51.730;5.356;2023-09-07T04:42:54;16.40;;;10.63;;
24617;SDS011;12762;51.730;5.356;2023-09-07T04:45:20;15.17;;;10.40;;
24617;SDS011;12762;51.730;5.356;2023-09-07T04:47:49;17.30;;;10.80;;
24617;SDS011;12762;51.730;5.356;2023-09-07T04:50:16;12.70;;;9.23;;
24617;SDS011;12762;51.730;5.356;2023-09-07T04:52:43;14.87;;;9.30;;
24617;SDS011;12762;51.730;5.356;2023-09-07T04:55:12;15.17;;;10.13;;
24617;SDS011;12762;51.730;5.356;2023-09-07T04:57:42;13.50;;;10.27;;
24617;SDS011;12762;51.730;5.356;2023-09-07T05:00:09;14.47;;;9.80;;
24617;SDS011;12762;51.730;5.356;2023-09-07T05:02:36;17.47;;;10.83;;
24617;SDS011;12762;51.730;5.356;2023-09-07T05:05:08;15.57;;;10.30;;
24617;SDS011;12762;51.730;5.356;2023-09-07T05:07:35;17.30;;;11.00;;
24617;SDS011;12762;51.730;5.356;2023-09-07T05:10:01;15.27;;;10.57;;
24617;SDS011;12762;51.730;5.356;2023-09-07T05:12:29;15.70;;;10.40;;
24617;SDS011;12762;51.730;5.356;2023-09-07T05:14:56;14.93;;;9.27;;
24617;SDS011;12762;51.730;5.356;2023-09-07T05:17:29;14.60;;;9.17;;
24617;SDS011;12762;51.730;5.356;2023-09-07T05:19:55;16.90;;;11.00;;
24617;SDS011;12762;51.730;5.356;2023-09-07T05:22:22;13.27;;;9.97;;
24617;SDS011;12762;51.730;5.356;2023-09-07T05:24:49;15.53;;;10.30;;
24617;SDS011;12762;51.730;5.356;2023-09-07T05:27:16;17.57;;;11.10;;
24617;SDS011;12762;51.730;5.356;2023-09-07T05:29:43;14.90;;;8.67;;
24617;SDS011;12762;51.730;5.356;2023-09-07T05:32:10;13.83;;;10.17;;
24617;SDS011;12762;51.730;5.356;2023-09-07T05:34:36;15.57;;;10.00;;
24617;SDS011;12762;51.730;5.356;2023-09-07T05:37:03;16.90;;;12.40;;
24617;SDS011;12762;51.730;5.356;2023-09-07T05:39:32;18.80;;;12.07;;
24617;SDS011;12762;51.730;5.356;2023-09-07T05:41:59;22.13;;;12.80;;
24617;SDS011;12762;51.730;5.356;2023-09-07T05:44:26;19.17;;;11.83;;
24617;SDS011;12762;51.730;5.356;2023-09-07T05:46:52;19.93;;;13.10;;
24617;SDS011;12762;51.730;5.356;2023-09-07T05:49:20;21.43;;;13.77;;
24617;SDS011;12762;51.730;5.356;2023-09-07T05:51:47;19.53;;;11.90;;
24617;SDS011;12762;51.730;5.356;2023-09-07T05:54:14;18.13;;;12.73;;
24617;SDS011;12762;51.730;5.356;2023-09-07T05:56:41;20.77;;;12.50;;
24617;SDS011;12762;51.730;5.356;2023-09-07T05:59:07;18.13;;;12.27;;
24617;SDS011;12762;51.730;5.356;2023-09-07T06:01:34;21.20;;;13.10;;
24617;SDS011;12762;51.730;5.356;2023-09-07T06:04:01;18.00;;;13.10;;
24617;SDS011;12762;51.730;5.356;2023-09-07T06:06:28;19.50;;;12.63;;
24617;SDS011;12762;51.730;5.356;2023-09-07T06:08:55;19.37;;;13.23;;
24617;SDS011;12762;51.730;5.356;2023-09-07T06:11:22;21.87;;;12.87;;
24617;SDS011;12762;51.730;5.356;2023-09-07T06:13:51;19.97;;;12.70;;
24617;SDS011;12762;51.730;5.356;2023-09-07T06:16:18;20.47;;;13.23;;
24617;SDS011;12762;51.730;5.356;2023-09-07T06:18:45;21.70;;;13.40;;
24617;SDS011;12762;51.730;5.356;2023-09-07T06:21:15;20.57;;;13.07;;
24617;SDS011;12762;51.730;5.356;2023-09-07T06:23:42;20.37;;;12.70;;
24617;SDS011;12762;51.730;5.356;2023-09-07T06:26:09;21.20;;;14.87;;
24617;SDS011;12762;51.730;5.356;2023-09-07T06:28:37;20.47;;;13.07;;
24617;SDS011;12762;51.730;5.356;2023-09-07T06:31:05;19.80;;;13.33;;
24617;SDS011;12762;51.730;5.356;2023-09-07T06:33:32;20.90;;;13.60;;
24617;SDS011;12762;51.730;5.356;2023-09-07T06:35:59;21.83;;;14.73;;
24617;SDS011;12762;51.730;5.356;2023-09-07T06:38:28;23.97;;;13.70;;
24617;SDS011;12762;51.730;5.356;2023-09-07T06:40:56;20.57;;;13.20;;
24617;SDS011;12762;51.730;5.356;2023-09-07T06:43:23;22.07;;;14.30;;
24617;SDS011;12762;51.730;5.356;2023-09-07T06:45:49;20.80;;;13.33;;
24617;SDS011;12762;51.730;5.356;2023-09-07T06:48:16;21.47;;;13.87;;
24617;SDS011;12762;51.730;5.356;2023-09-07T06:50:43;21.33;;;14.13;;
24617;SDS011;12762;51.730;5.356;2023-09-07T06:53:10;21.23;;;13.80;;
24617;SDS011;12762;51.730;5.356;2023-09-07T06:55:37;22.10;;;13.50;;
24617;SDS011;12762;51.730;5.356;2023-09-07T06:58:04;22.87;;;14.70;;
24617;SDS011;12762;51.730;5.356;2023-09-07T07:00:30;18.90;;;13.37;;
24617;SDS011;12762;51.730;5.356;2023-09-07T07:02:57;20.10;;;13.53;;
24617;SDS011;12762;51.730;5.356;2023-09-07T07:05:27;21.23;;;14.27;;
24617;SDS011;12762;51.730;5.356;2023-09-07T07:07:55;20.90;;;14.30;;
24617;SDS011;12762;51.730;5.356;2023-09-07T07:10:22;24.40;;;14.53;;
24617;SDS011;12762;51.730;5.356;2023-09-07T07:12:49;19.57;;;14.07;;
24617;SDS011;12762;51.730;5.356;2023-09-07T07:15:16;19.87;;;13.60;;
24617;SDS011;12762;51.730;5.356;2023-09-07T07:17:44;17.97;;;12.73;;
24617;SDS011;12762;51.730;5.356;2023-09-07T07:20:11;18.43;;;13.17;;
24617;SDS011;12762;51.730;5.356;2023-09-07T07:22:37;22.57;;;14.27;;
24617;SDS011;12762;51.730;5.356;2023-09-07T07:25:07;22.20;;;13.23;;
24617;SDS011;12762;51.730;5.356;2023-09-07T07:27:34;20.40;;;13.33;;
24617;SDS011;12762;51.730;5.356;2023-09-07T07:30:01;17.60;;;13.00;;
24617;SDS011;12762;51.730;5.356;2023-09-07T07:32:29;19.23;;;13.73;;
24617;SDS011;12762;51.730;5.356;2023-09-07T07:34:55;20.93;;;14.87;;
24617;SDS011;12762;51.730;5.356;2023-09-07T07:37:23;20.40;;;12.57;;
24617;SDS011;12762;51.730;5.356;2023-09-07T07:39:50;17.90;;;12.10;;
24617;SDS011;12762;51.730;5.356;2023-09-07T07:42:17;14.77;;;9.57;;
24617;SDS011;12762;51.730;5.356;2023-09-07T07:44:45;15.03;;;9.60;;
24617;SDS011;12762;51.730;5.356;2023-09-07T07:47:11;15.07;;;10.50;;
24617;SDS011;12762;51.730;5.356;2023-09-07T07:49:38;14.50;;;8.80;;
24617;SDS011;12762;51.730;5.356;2023-09-07T07:52:05;15.10;;;10.10;;
24617;SDS011;12762;51.730;5.356;2023-09-07T07:54:33;14.63;;;8.97;;
24617;SDS011;12762;51.730;5.356;2023-09-07T07:57:00;14.23;;;8.73;;
24617;SDS011;12762;51.730;5.356;2023-09-07T07:59:27;11.32;;;7.60;;
24617;SDS011;12762;51.730;5.356;2023-09-07T08:01:53;11.75;;;8.13;;
24617;SDS011;12762;51.730;5.356;2023-09-07T08:04:20;10.05;;;7.72;;
24617;SDS011;12762;51.730;5.356;2023-09-07T08:06:47;9.40;;;7.43;;
24617;SDS011;12762;51.730;5.356;2023-09-07T08:09:14;10.18;;;7.55;;
24617;SDS011;12762;51.730;5.356;2023-09-07T08:11:42;10.75;;;6.82;;
24617;SDS011;12762;51.730;5.356;2023-09-07T08:14:09;9.88;;;6.85;;
24617;SDS011;12762;51.730;5.356;2023-09-07T08:16:36;10.82;;;6.45;;
24617;SDS011;12762;51.730;5.356;2023-09-07T08:19:03;11.32;;;6.43;;
24617;SDS011;12762;51.730;5.356;2023-09-07T08:21:33;9.13;;;5.60;;
24617;SDS011;12762;51.730;5.356;2023-09-07T08:24:01;10.75;;;6.20;;
24617;SDS011;12762;51.730;5.356;2023-09-07T08:26:30;9.95;;;6.00;;
24617;SDS011;12762;51.730;5.356;2023-09-07T08:28:57;9.10;;;5.50;;
24617;SDS011;12762;51.730;5.356;2023-09-07T08:31:23;9.85;;;5.80;;
24617;SDS011;12762;51.730;5.356;2023-09-07T08:33:50;11.52;;;6.05;;
24617;SDS011;12762;51.730;5.356;2023-09-07T08:36:18;9.70;;;6.35;;
24617;SDS011;12762;51.730;5.356;2023-09-07T08:38:49;12.00;;;6.03;;
24617;SDS011;12762;51.730;5.356;2023-09-07T08:41:20;13.23;;;5.15;;
24617;SDS011;12762;51.730;5.356;2023-09-07T08:43:47;9.63;;;5.53;;
24617;SDS011;12762;51.730;5.356;2023-09-07T08:46:19;6.82;;;5.20;;
24617;SDS011;12762;51.730;5.356;2023-09-07T08:48:50;12.35;;;5.82;;
24617;SDS011;12762;51.730;5.356;2023-09-07T08:51:18;10.20;;;5.32;;
24617;SDS011;12762;51.730;5.356;2023-09-07T08:53:45;10.10;;;5.40;;
24617;SDS011;12762;51.730;5.356;2023-09-07T08:56:13;11.68;;;5.85;;
24617;SDS011;12762;51.730;5.356;2023-09-07T08:58:41;8.98;;;5.40;;
24617;SDS011;12762;51.730;5.356;2023-09-07T09:01:08;6.97;;;4.55;;
24617;SDS011;12762;51.730;5.356;2023-09-07T09:03:36;9.70;;;5.18;;
24617;SDS011;12762;51.730;5.356;2023-09-07T09:06:06;8.32;;;5.53;;
24617;SDS011;12762;51.730;5.356;2023-09-07T09:08:50;8.05;;;5.22;;
24617;SDS011;12762;51.730;5.356;2023-09-07T09:11:21;7.97;;;5.00;;
24617;SDS011;12762;51.730;5.356;2023-09-07T09:13:49;7.55;;;4.95;;
24617;SDS011;12762;51.730;5.356;2023-09-07T09:16:18;9.50;;;5.65;;
24617;SDS011;12762;51.730;5.356;2023-09-07T09:18:49;9.82;;;4.90;;
24617;SDS011;12762;51.730;5.356;2023-09-07T09:21:21;9.43;;;5.05;;
24617;SDS011;12762;51.730;5.356;2023-09-07T09:23:53;8.07;;;5.40;;
24617;SDS011;12762;51.730;5.356;2023-09-07T09:26:29;9.80;;;5.20;;
24617;SDS011;12762;51.730;5.356;2023-09-07T09:28:59;7.22;;;5.28;;
24617;SDS011;12762;51.730;5.356;2023-09-07T09:31:26;8.68;;;5.20;;
24617;SDS011;12762;51.730;5.356;2023-09-07T09:33:53;8.65;;;5.15;;
24617;SDS011;12762;51.730;5.356;2023-09-07T09:36:21;8.68;;;5.10;;
24617;SDS011;12762;51.730;5.356;2023-09-07T09:38:49;10.70;;;5.47;;
24617;SDS011;12762;51.730;5.356;2023-09-07T09:41:19;9.85;;;5.35;;
24617;SDS011;12762;51.730;5.356;2023-09-07T09:43:49;9.10;;;5.32;;
24617;SDS011;12762;51.730;5.356;2023-09-07T09:46:18;8.50;;;5.35;;
24617;SDS011;12762;51.730;5.356;2023-09-07T09:48:45;10.85;;;5.80;;
24617;SDS011;12762;51.730;5.356;2023-09-07T09:51:15;9.10;;;5.22;;
24617;SDS011;12762;51.730;5.356;2023-09-07T09:53:44;9.90;;;5.30;;
24617;SDS011;12762;51.730;5.356;2023-09-07T09:56:11;7.25;;;4.82;;
24617;SDS011;12762;51.730;5.356;2023-09-07T09:58:38;5.95;;;4.72;;
24617;SDS011;12762;51.730;5.356;2023-09-07T10:01:11;6.07;;;4.20;;
24617;SDS011;12762;51.730;5.356;2023-09-07T10:03:42;7.03;;;4.57;;
24617;SDS011;12762;51.730;5.356;2023-09-07T10:09:04;7.43;;;4.38;;
24617;SDS011;12762;51.730;5.356;2023-09-07T10:11:37;5.18;;;3.78;;
24617;SDS011;12762;51.730;5.356;2023-09-07T10:14:05;5.25;;;3.75;;
24617;SDS011;12762;51.730;5.356;2023-09-07T10:19:20;5.45;;;3.92;;
24617;SDS011;12762;51.730;5.356;2023-09-07T10:21:52;8.43;;;4.40;;
24617;SDS011;12762;51.730;5.356;2023-09-07T10:24:27;6.10;;;3.90;;
24617;SDS011;12762;51.730;5.356;2023-09-07T10:27:05;6.88;;;4.50;;
24617;SDS011;12762;51.730;5.356;2023-09-07T10:29:42;7.00;;;4.10;;
24617;SDS011;12762;51.730;5.356;2023-09-07T10:32:10;7.07;;;4.57;;
24617;SDS011;12762;51.730;5.356;2023-09-07T10:34:45;8.55;;;3.83;;
24617;SDS011;12762;51.730;5.356;2023-09-07T10:37:13;6.55;;;4.53;;
24617;SDS011;12762;51.730;5.356;2023-09-07T10:39:41;6.85;;;3.70;;
24617;SDS011;12762;51.730;5.356;2023-09-07T10:42:25;9.20;;;4.68;;
24617;SDS011;12762;51.730;5.356;2023-09-07T10:44:52;5.35;;;4.07;;
24617;SDS011;12762;51.730;5.356;2023-09-07T10:47:20;5.22;;;3.80;;
24617;SDS011;12762;51.730;5.356;2023-09-07T10:49:47;8.63;;;4.15;;
24617;SDS011;12762;51.730;5.356;2023-09-07T10:52:14;6.20;;;4.13;;
24617;SDS011;12762;51.730;5.356;2023-09-07T10:54:41;9.02;;;4.15;;
24617;SDS011;12762;51.730;5.356;2023-09-07T10:57:11;6.65;;;4.25;;
24617;SDS011;12762;51.730;5.356;2023-09-07T10:59:46;5.28;;;3.53;;
24617;SDS011;12762;51.730;5.356;2023-09-07T11:02:16;6.43;;;3.25;;
24617;SDS011;12762;51.730;5.356;2023-09-07T11:04:43;5.18;;;3.50;;
24617;SDS011;12762;51.730;5.356;2023-09-07T11:07:10;4.55;;;3.30;;
24617;SDS011;12762;51.730;5.356;2023-09-07T11:09:43;6.60;;;3.40;;
24617;SDS011;12762;51.730;5.356;2023-09-07T11:12:14;5.40;;;3.20;;
24617;SDS011;12762;51.730;5.356;2023-09-07T11:14:47;5.82;;;3.40;;
24617;SDS011;12762;51.730;5.356;2023-09-07T11:17:15;5.65;;;3.58;;
24617;SDS011;12762;51.730;5.356;2023-09-07T11:19:42;5.03;;;3.55;;
24617;SDS011;12762;51.730;5.356;2023-09-07T11:22:09;4.82;;;3.35;;
24617;SDS011;12762;51.730;5.356;2023-09-07T11:24:37;5.55;;;3.28;;
24617;SDS011;12762;51.730;5.356;2023-09-07T11:27:03;6.93;;;3.08;;
24617;SDS011;12762;51.730;5.356;2023-09-07T11:29:34;6.22;;;3.60;;
24617;SDS011;12762;51.730;5.356;2023-09-07T11:32:07;8.15;;;3.63;;
24617;SDS011;12762;51.730;5.356;2023-09-07T11:34:35;5.25;;;3.60;;
24617;SDS011;12762;51.730;5.356;2023-09-07T11:37:15;5.95;;;3.40;;
24617;SDS011;12762;51.730;5.356;2023-09-07T11:39:42;4.05;;;2.97;;
24617;SDS011;12762;51.730;5.356;2023-09-07T11:42:09;5.18;;;3.20;;
24617;SDS011;12762;51.730;5.356;2023-09-07T11:44:36;5.03;;;3.13;;
24617;SDS011;12762;51.730;5.356;2023-09-07T11:47:06;5.47;;;3.22;;
24617;SDS011;12762;51.730;5.356;2023-09-07T11:49:37;5.85;;;3.63;;
24617;SDS011;12762;51.730;5.356;2023-09-07T11:52:04;4.03;;;3.15;;
24617;SDS011;12762;51.730;5.356;2023-09-07T11:54:31;5.93;;;3.40;;
24617;SDS011;12762;51.730;5.356;2023-09-07T11:56:58;5.40;;;3.70;;
24617;SDS011;12762;51.730;5.356;2023-09-07T11:59:24;4.75;;;3.72;;
24617;SDS011;12762;51.730;5.356;2023-09-07T12:01:52;3.92;;;3.28;;
24617;SDS011;12762;51.730;5.356;2023-09-07T12:04:19;5.35;;;3.65;;
24617;SDS011;12762;51.730;5.356;2023-09-07T12:06:46;4.47;;;3.17;;
24617;SDS011;12762;51.730;5.356;2023-09-07T12:09:12;4.78;;;3.20;;
24617;SDS011;12762;51.730;5.356;2023-09-07T12:11:40;7.95;;;3.33;;
24617;SDS011;12762;51.730;5.356;2023-09-07T12:14:08;7.55;;;3.53;;
24617;SDS011;12762;51.730;5.356;2023-09-07T12:16:36;4.03;;;3.38;;
24617;SDS011;12762;51.730;5.356;2023-09-07T12:19:03;5.40;;;3.50;;
24617;SDS011;12762;51.730;5.356;2023-09-07T12:21:30;4.55;;;3.50;;
24617;SDS011;12762;51.730;5.356;2023-09-07T12:23:57;4.78;;;3.03;;
24617;SDS011;12762;51.730;5.356;2023-09-07T12:26:33;4.25;;;3.30;;
24617;SDS011;12762;51.730;5.356;2023-09-07T12:29:00;4.93;;;3.35;;
24617;SDS011;12762;51.730;5.356;2023-09-07T12:31:27;5.47;;;3.72;;
24617;SDS011;12762;51.730;5.356;2023-09-07T12:33:54;8.63;;;3.58;;
24617;SDS011;12762;51.730;5.356;2023-09-07T12:36:20;5.75;;;3.70;;
24617;SDS011;12762;51.730;5.356;2023-09-07T12:38:48;6.00;;;3.40;;
24617;SDS011;12762;51.730;5.356;2023-09-07T12:41:15;4.55;;;3.50;;
24617;SDS011;12762;51.730;5.356;2023-09-07T12:43:42;7.13;;;3.67;;
24617;SDS011;12762;51.730;5.356;2023-09-07T12:46:09;6.03;;;4.03;;
24617;SDS011;12762;51.730;5.356;2023-09-07T12:48:36;6.35;;;3.65;;
24617;SDS011;12762;51.730;5.356;2023-09-07T12:51:03;5.65;;;3.42;;
24617;SDS011;12762;51.730;5.356;2023-09-07T12:53:29;5.28;;;3.35;;
24617;SDS011;12762;51.730;5.356;2023-09-07T12:55:57;5.50;;;3.45;;
24617;SDS011;12762;51.730;5.356;2023-09-07T12:58:23;4.20;;;3.35;;
24617;SDS011;12762;51.730;5.356;2023-09-07T13:00:50;4.78;;;3.08;;
24617;SDS011;12762;51.730;5.356;2023-09-07T13:03:19;7.93;;;3.65;;
24617;SDS011;12762;51.730;5.356;2023-09-07T13:05:46;5.38;;;3.28;;
24617;SDS011;12762;51.730;5.356;2023-09-07T13:08:13;6.25;;;3.92;;
24617;SDS011;12762;51.730;5.356;2023-09-07T13:10:40;5.30;;;3.22;;
24617;SDS011;12762;51.730;5.356;2023-09-07T13:13:07;6.60;;;3.83;;
24617;SDS011;12762;51.730;5.356;2023-09-07T13:15:34;6.30;;;3.35;;
24617;SDS011;12762;51.730;5.356;2023-09-07T13:18:01;5.53;;;3.58;;
24617;SDS011;12762;51.730;5.356;2023-09-07T13:20:28;5.05;;;3.58;;
24617;SDS011;12762;51.730;5.356;2023-09-07T13:22:55;4.50;;;3.28;;
24617;SDS011;12762;51.730;5.356;2023-09-07T13:25:22;4.60;;;3.58;;
24617;SDS011;12762;51.730;5.356;2023-09-07T13:27:52;4.72;;;3.65;;
24617;SDS011;12762;51.730;5.356;2023-09-07T13:30:19;5.40;;;3.55;;
24617;SDS011;12762;51.730;5.356;2023-09-07T13:32:46;7.43;;;3.72;;
24617;SDS011;12762;51.730;5.356;2023-09-07T13:35:15;8.40;;;4.07;;
24617;SDS011;12762;51.730;5.356;2023-09-07T13:37:42;7.63;;;3.95;;
24617;SDS011;12762;51.730;5.356;2023-09-07T13:40:09;6.25;;;3.03;;
24617;SDS011;12762;51.730;5.356;2023-09-07T13:42:39;6.15;;;3.85;;
24617;SDS011;12762;51.730;5.356;2023-09-07T13:45:07;5.57;;;3.10;;
24617;SDS011;12762;51.730;5.356;2023-09-07T13:47:34;6.00;;;3.50;;
24617;SDS011;12762;51.730;5.356;2023-09-07T13:50:01;6.07;;;3.85;;
24617;SDS011;12762;51.730;5.356;2023-09-07T13:52:29;5.20;;;3.70;;
24617;SDS011;12762;51.730;5.356;2023-09-07T13:54:56;5.20;;;3.22;;
24617;SDS011;12762;51.730;5.356;2023-09-07T13:57:22;5.28;;;3.33;;
24617;SDS011;12762;51.730;5.356;2023-09-07T13:59:50;3.95;;;3.50;;
24617;SDS011;12762;51.730;5.356;2023-09-07T14:02:16;6.25;;;3.60;;
24617;SDS011;12762;51.730;5.356;2023-09-07T14:04:43;4.43;;;3.38;;
24617;SDS011;12762;51.730;5.356;2023-09-07T14:07:13;5.30;;;3.47;;
24617;SDS011;12762;51.730;5.356;2023-09-07T14:09:39;6.10;;;3.53;;
24617;SDS011;12762;51.730;5.356;2023-09-07T14:12:06;5.93;;;3.67;;
24617;SDS011;12762;51.730;5.356;2023-09-07T14:14:33;3.70;;;3.17;;
24617;SDS011;12762;51.730;5.356;2023-09-07T14:17:00;4.25;;;3.50;;
24617;SDS011;12762;51.730;5.356;2023-09-07T14:19:32;5.03;;;3.90;;
24617;SDS011;12762;51.730;5.356;2023-09-07T14:21:59;4.75;;;3.33;;
24617;SDS011;12762;51.730;5.356;2023-09-07T14:24:26;4.20;;;3.42;;
24617;SDS011;12762;51.730;5.356;2023-09-07T14:26:53;6.25;;;3.50;;
24617;SDS011;12762;51.730;5.356;2023-09-07T14:29:20;5.68;;;3.40;;
24617;SDS011;12762;51.730;5.356;2023-09-07T14:31:50;4.07;;;3.40;;
24617;SDS011;12762;51.730;5.356;2023-09-07T14:34:16;4.85;;;3.30;;
24617;SDS011;12762;51.730;5.356;2023-09-07T14:36:43;6.45;;;3.35;;
24617;SDS011;12762;51.730;5.356;2023-09-07T14:39:14;8.02;;;3.72;;
24617;SDS011;12762;51.730;5.356;2023-09-07T14:41:41;3.95;;;3.45;;
24617;SDS011;12762;51.730;5.356;2023-09-07T14:44:09;8.32;;;3.72;;
24617;SDS011;12762;51.730;5.356;2023-09-07T14:46:36;5.35;;;3.42;;